Time;durP1;ratioP1;P1;durP2;ratioP2;P2;SDS_P1;SDS_P2;PMS_P1;PMS_P2;Temp;Humidity;BMP_temperature;BMP_pressure;BME280_temperature;BME280_humidity;BME280_pressure;Samples;Min_cycle;Max_cycle;Signal;HPM_P1;HPM_P2
2023/11/19 00:01:32;;;;;;;58.53;33.35;;;12.50;99.90;;;;;;4975374;28;20052;-80
2023/11/19 00:03:59;;;;;;;45.17;28.92;;;12.50;99.90;;;;;;4959638;28;20045;-80
2023/11/19 00:06:25;;;;;;;46.55;30.42;;;12.50;99.90;;;;;;4993919;28;20034;-80
2023/11/19 00:08:51;;;;;;;45.80;28.55;;;12.50;99.90;;;;;;4996300;28;20040;-81
2023/11/19 00:11:18;;;;;;;54.55;31.77;;;12.50;99.90;;;;;;4990236;28;20040;-81
2023/11/19 00:13:44;;;;;;;53.08;30.58;;;12.60;99.90;;;;;;4992990;28;20030;-77
2023/11/19 00:16:12;;;;;;;47.85;30.58;;;12.60;99.90;;;;;;4968362;28;20488;-81
2023/11/19 00:18:38;;;;;;;48.13;29.83;;;12.60;99.90;;;;;;4977887;28;20042;-80
2023/11/19 00:21:05;;;;;;;46.30;29.15;;;12.60;99.90;;;;;;4992830;28;20045;-79
2023/11/19 00:23:31;;;;;;;43.80;27.52;;;12.60;99.90;;;;;;4974171;28;20535;-79
2023/11/19 00:25:57;;;;;;;59.10;32.63;;;12.60;99.90;;;;;;5002453;28;20038;-82
2023/11/19 00:28:24;;;;;;;80.63;38.22;;;12.60;99.90;;;;;;4990779;28;20037;-81
2023/11/19 00:30:50;;;;;;;50.90;30.52;;;12.70;99.90;;;;;;4992791;28;20037;-79
2023/11/19 00:33:16;;;;;;;51.10;31.30;;;12.70;99.90;;;;;;4993984;28;20025;-81
2023/11/19 00:35:43;;;;;;;49.08;30.23;;;12.70;99.90;;;;;;4992489;28;20033;-81
2023/11/19 00:38:10;;;;;;;49.58;32.05;;;12.70;99.90;;;;;;4977923;28;20038;-82
2023/11/19 00:40:36;;;;;;;45.92;27.77;;;12.70;99.90;;;;;;4957686;28;20036;-81
2023/11/19 00:43:03;;;;;;;50.38;30.70;;;12.70;99.90;;;;;;4969632;28;20029;-80
2023/11/19 00:45:29;;;;;;;50.67;30.90;;;12.70;99.90;;;;;;4976054;28;20053;-77
2023/11/19 00:47:55;;;;;;;46.60;28.50;;;12.70;99.90;;;;;;4993061;28;20033;-80
2023/11/19 00:50:22;;;;;;;49.70;28.63;;;12.70;99.90;;;;;;4983695;28;20404;-80
2023/11/19 00:52:49;;;;;;;43.85;27.02;;;12.70;99.90;;;;;;4994582;28;20491;-79
2023/11/19 00:55:16;;;;;;;40.88;23.90;;;12.70;99.90;;;;;;4989454;28;20026;-77
2023/11/19 00:57:42;;;;;;;40.85;25.58;;;12.70;99.90;;;;;;4974575;28;20046;-79
2023/11/19 01:00:18;;;;;;;41.15;24.52;;;12.70;99.90;;;;;;4992285;28;20046;-79
2023/11/19 01:02:45;;;;;;;56.42;29.83;;;12.70;99.90;;;;;;4990197;28;20041;-79
2023/11/19 01:05:14;;;;;;;41.85;25.85;;;12.70;99.90;;;;;;4990656;28;20045;-80
2023/11/19 01:07:41;;;;;;;35.75;21.05;;;12.80;99.90;;;;;;4974303;28;20038;-80
2023/11/19 01:10:08;;;;;;;42.08;23.45;;;12.70;99.90;;;;;;4958459;28;20038;-79
2023/11/19 01:12:34;;;;;;;36.95;21.65;;;12.70;99.90;;;;;;4961311;28;20046;-81
2023/11/19 01:15:01;;;;;;;35.25;21.50;;;12.70;99.90;;;;;;4994803;28;20264;-77
2023/11/19 01:17:31;;;;;;;39.78;20.67;;;12.70;99.90;;;;;;4979391;28;20037;-79
2023/11/19 01:19:58;;;;;;;40.83;22.27;;;12.70;99.90;;;;;;4976218;28;20045;-79
2023/11/19 01:22:26;;;;;;;34.10;19.92;;;12.80;99.90;;;;;;4993588;28;20042;-80
2023/11/19 01:24:54;;;;;;;30.77;19.08;;;12.80;99.90;;;;;;4972870;28;20042;-81
2023/11/19 01:27:20;;;;;;;34.85;19.38;;;12.80;99.90;;;;;;4955610;28;22639;-78
2023/11/19 01:29:46;;;;;;;44.33;20.40;;;12.80;99.90;;;;;;4995525;28;20033;-81
2023/11/19 01:32:13;;;;;;;34.90;17.45;;;12.80;99.90;;;;;;4996030;28;20378;-81
2023/11/19 01:34:40;;;;;;;33.55;15.65;;;12.80;99.90;;;;;;4993504;28;20060;-78
2023/11/19 01:37:09;;;;;;;49.00;19.48;;;12.80;99.90;;;;;;4967031;28;20053;-81
2023/11/19 01:39:35;;;;;;;31.65;15.73;;;12.80;99.90;;;;;;4962224;28;20046;-82
2023/11/19 01:42:02;;;;;;;29.40;15.15;;;12.80;99.90;;;;;;4994020;28;20045;-78
2023/11/19 01:44:28;;;;;;;25.25;13.43;;;12.80;99.90;;;;;;4995438;28;20504;-82
2023/11/19 01:46:55;;;;;;;33.10;14.48;;;12.80;99.90;;;;;;4991469;28;20489;-81
2023/11/19 01:49:22;;;;;;;43.85;16.65;;;12.80;99.90;;;;;;4994699;28;20511;-80
2023/11/19 01:51:49;;;;;;;36.10;13.52;;;12.80;99.90;;;;;;4993764;28;20536;-77
2023/11/19 01:54:15;;;;;;;22.30;12.02;;;12.80;99.90;;;;;;4997391;28;20042;-77
2023/11/19 01:56:43;;;;;;;30.00;12.93;;;12.80;99.90;;;;;;4972045;28;20041;-81
2023/11/19 01:59:11;;;;;;;45.40;15.15;;;12.80;99.90;;;;;;4980046;28;20045;-76
2023/11/19 02:01:39;;;;;;;28.17;12.27;;;12.80;99.90;;;;;;4964663;28;20365;-80
2023/11/19 02:04:07;;;;;;;28.80;11.55;;;12.80;99.90;;;;;;4994897;28;20029;-81
2023/11/19 02:06:37;;;;;;;41.47;13.38;;;12.80;99.90;;;;;;4953334;28;20397;-81
2023/11/19 02:09:07;;;;;;;32.42;11.30;;;12.80;99.90;;;;;;4989710;28;20044;-79
2023/11/19 02:11:34;;;;;;;32.55;12.68;;;12.80;99.90;;;;;;4968685;28;20416;-78
2023/11/19 02:14:03;;;;;;;38.90;13.27;;;12.80;99.90;;;;;;4993050;28;20041;-77
2023/11/19 02:16:29;;;;;;;32.08;12.13;;;12.80;99.90;;;;;;4960741;28;20034;-76
2023/11/19 02:18:56;;;;;;;28.27;11.25;;;12.70;99.90;;;;;;4977713;28;20054;-82
2023/11/19 02:21:22;;;;;;;30.90;11.70;;;12.80;99.90;;;;;;4960137;28;20049;-77
2023/11/19 02:23:48;;;;;;;24.70;10.30;;;12.70;99.90;;;;;;4971525;28;20485;-82
2023/11/19 02:26:18;;;;;;;26.65;10.32;;;12.70;99.90;;;;;;4995639;28;20653;-82
2023/11/19 02:28:45;;;;;;;30.35;9.85;;;12.80;99.90;;;;;;4976789;28;20041;-81
2023/11/19 02:31:11;;;;;;;32.30;11.50;;;12.70;99.90;;;;;;4978118;28;20045;-79
2023/11/19 02:33:39;;;;;;;30.02;9.35;;;12.70;99.90;;;;;;4996296;28;20030;-80
2023/11/19 02:36:09;;;;;;;26.27;9.27;;;12.70;99.90;;;;;;4993051;28;20605;-81
2023/11/19 02:38:36;;;;;;;49.55;11.88;;;12.70;99.90;;;;;;4993296;28;20050;-82
2023/11/19 02:41:06;;;;;;;33.65;9.65;;;12.70;99.90;;;;;;4959683;28;20038;-79
2023/11/19 02:43:34;;;;;;;38.03;9.40;;;12.70;99.90;;;;;;4979712;28;20147;-81
2023/11/19 02:46:07;;;;;;;32.17;8.75;;;12.70;99.90;;;;;;4960252;28;20037;-82
2023/11/19 02:48:35;;;;;;;38.90;8.38;;;12.70;99.90;;;;;;4978529;28;20038;-84
2023/11/19 02:51:03;;;;;;;49.67;8.88;;;12.70;99.90;;;;;;4960841;28;20037;-80
2023/11/19 02:53:30;;;;;;;37.42;8.15;;;12.70;99.90;;;;;;4977815;28;20045;-79
2023/11/19 02:56:09;;;;;;;44.22;7.70;;;12.60;99.90;;;;;;4990648;28;20034;-81
2023/11/19 02:58:35;;;;;;;31.45;7.18;;;12.60;99.90;;;;;;5006385;28;20042;-82
2023/11/19 03:01:12;;;;;;;37.35;7.35;;;12.60;99.90;;;;;;4994854;28;20404;-82
2023/11/19 03:03:40;;;;;;;48.17;7.07;;;12.60;99.90;;;;;;4961526;28;20733;-81
2023/11/19 03:06:09;;;;;;;36.05;7.57;;;12.60;99.90;;;;;;4974167;28;20037;-79
2023/11/19 03:08:36;;;;;;;40.38;7.82;;;12.60;99.90;;;;;;4975448;28;20401;-82
2023/11/19 03:11:02;;;;;;;32.92;6.85;;;12.50;99.90;;;;;;4972295;28;20026;-80
2023/11/19 03:13:29;;;;;;;41.13;7.85;;;12.50;99.90;;;;;;4992905;28;20504;-81
2023/11/19 03:15:55;;;;;;;43.67;7.88;;;12.50;99.90;;;;;;4991485;28;20030;-81
2023/11/19 03:18:21;;;;;;;43.78;7.75;;;12.50;99.90;;;;;;4958627;28;20045;-80
2023/11/19 03:20:49;;;;;;;42.65;7.10;;;12.40;99.90;;;;;;4993719;28;20029;-79
2023/11/19 03:23:15;;;;;;;46.67;8.18;;;12.40;99.90;;;;;;4995678;28;20037;-80
2023/11/19 03:25:43;;;;;;;42.47;7.60;;;12.40;99.90;;;;;;4977331;28;20038;-82
2023/11/19 03:28:10;;;;;;;43.80;7.05;;;12.40;99.90;;;;;;4954235;28;20038;-78
2023/11/19 03:30:38;;;;;;;33.25;6.32;;;12.40;99.90;;;;;;4961479;28;20038;-81
2023/11/19 03:33:04;;;;;;;38.80;6.47;;;12.30;99.90;;;;;;4960587;28;20037;-81
2023/11/19 03:35:31;;;;;;;34.63;6.68;;;12.30;99.90;;;;;;4994099;28;20373;-80
2023/11/19 03:37:57;;;;;;;44.85;8.35;;;12.20;99.90;;;;;;4980957;28;21013;-83
2023/11/19 03:40:25;;;;;;;39.33;7.38;;;12.20;99.90;;;;;;4990815;28;20045;-82
2023/11/19 03:42:51;;;;;;;49.42;8.38;;;12.20;99.90;;;;;;4974027;28;20401;-82
2023/11/19 03:45:17;;;;;;;46.97;8.60;;;12.10;99.90;;;;;;4992144;28;20030;-79
2023/11/19 03:47:44;;;;;;;46.22;8.10;;;12.10;99.90;;;;;;4977682;28;20037;-82
2023/11/19 03:50:10;;;;;;;42.15;8.43;;;12.10;99.90;;;;;;4974376;28;20042;-82
2023/11/19 03:52:37;;;;;;;78.15;13.88;;;12.00;99.90;;;;;;4993022;28;20246;-79
2023/11/19 03:55:05;;;;;;;49.63;10.45;;;12.00;99.90;;;;;;4971792;28;20038;-81
2023/11/19 03:57:31;;;;;;;51.08;10.13;;;11.90;99.90;;;;;;4993735;28;20033;-81
2023/11/19 03:59:58;;;;;;;58.58;11.23;;;11.80;99.90;;;;;;4978180;28;20401;-80
2023/11/19 04:02:27;;;;;;;57.05;10.65;;;11.70;99.90;;;;;;4994085;28;20038;-80
2023/11/19 04:04:55;;;;;;;44.00;8.95;;;11.60;99.90;;;;;;4992787;28;20443;-82
2023/11/19 04:07:21;;;;;;;57.42;10.93;;;11.50;99.90;;;;;;4994386;28;20556;-76
2023/11/19 04:09:48;;;;;;;58.40;8.68;;;11.50;99.90;;;;;;4993402;28;20029;-81
2023/11/19 04:12:14;;;;;;;58.03;9.80;;;11.40;99.90;;;;;;4974954;28;20049;-82
2023/11/19 04:14:40;;;;;;;45.80;8.60;;;11.30;99.90;;;;;;4974695;28;20030;-79
2023/11/19 04:17:07;;;;;;;50.58;8.13;;;11.30;99.90;;;;;;4985026;28;20037;-80
2023/11/19 04:19:33;;;;;;;48.35;7.20;;;11.30;99.90;;;;;;4974980;28;20046;-75
2023/11/19 04:21:59;;;;;;;37.15;7.00;;;11.20;99.90;;;;;;4968250;28;20041;-82
2023/11/19 04:24:25;;;;;;;61.53;8.40;;;11.20;99.90;;;;;;4994268;28;20034;-81
2023/11/19 04:26:52;;;;;;;56.35;8.23;;;11.20;99.90;;;;;;4989277;28;20343;-81
2023/11/19 04:29:19;;;;;;;60.15;8.60;;;11.20;99.90;;;;;;4979282;28;20030;-77
2023/11/19 04:31:46;;;;;;;56.63;7.38;;;11.10;99.90;;;;;;4990948;28;20045;-80
2023/11/19 04:34:12;;;;;;;42.88;7.03;;;11.10;99.90;;;;;;4961894;28;20049;-81
2023/11/19 04:36:39;;;;;;;47.85;6.40;;;11.10;99.90;;;;;;4973465;28;20267;-81
2023/11/19 04:39:12;;;;;;;48.22;7.00;;;11.10;99.90;;;;;;4975573;28;20404;-81
2023/11/19 04:41:54;;;;;;;46.45;8.00;;;11.00;99.90;;;;;;5005136;28;20048;-78
2023/11/19 04:44:20;;;;;;;47.40;7.60;;;11.00;99.90;;;;;;4977584;28;20049;-82
2023/11/19 04:46:47;;;;;;;47.75;6.80;;;11.00;99.90;;;;;;4985406;28;20030;-82
2023/11/19 04:49:14;;;;;;;41.50;6.30;;;11.00;99.90;;;;;;4995151;28;20037;-78
2023/11/19 04:51:41;;;;;;;57.35;9.50;;;11.00;99.90;;;;;;4997093;28;20366;-82
2023/11/19 04:54:09;;;;;;;57.30;7.15;;;10.90;99.90;;;;;;4997110;28;20034;-78
2023/11/19 04:56:37;;;;;;;40.30;7.38;;;10.90;99.90;;;;;;4995107;28;20030;-80
2023/11/19 04:59:05;;;;;;;55.15;7.65;;;10.90;99.90;;;;;;4997386;28;20489;-82
2023/11/19 05:01:33;;;;;;;43.90;6.72;;;10.80;99.90;;;;;;4997339;28;20066;-79
2023/11/19 05:03:59;;;;;;;65.53;8.85;;;10.80;99.90;;;;;;4980824;28;20037;-85
2023/11/19 05:06:30;;;;;;;52.72;7.07;;;10.80;99.90;;;;;;4998147;28;20033;-79
2023/11/19 05:08:58;;;;;;;53.20;8.30;;;10.80;99.90;;;;;;4997698;28;20042;-76
2023/11/19 05:11:25;;;;;;;55.80;8.52;;;10.80;99.90;;;;;;4978386;28;20045;-79
2023/11/19 05:13:51;;;;;;;51.42;7.10;;;10.70;99.90;;;;;;4991355;28;20042;-81
2023/11/19 05:16:17;;;;;;;48.47;7.35;;;10.70;99.90;;;;;;4979631;28;20250;-81
2023/11/19 05:18:44;;;;;;;51.65;7.45;;;10.70;99.90;;;;;;4993786;28;20041;-81
2023/11/19 05:21:11;;;;;;;41.85;6.78;;;10.70;99.90;;;;;;4995725;28;20038;-81
2023/11/19 05:23:37;;;;;;;49.65;7.40;;;10.70;99.90;;;;;;4996017;28;20400;-81
2023/11/19 05:26:04;;;;;;;59.25;7.68;;;10.70;99.90;;;;;;4995658;28;20046;-77
2023/11/19 05:28:30;;;;;;;55.85;7.85;;;10.80;99.90;;;;;;4980309;28;20057;-79
2023/11/19 05:30:57;;;;;;;57.45;7.00;;;10.80;99.90;;;;;;4993845;28;20044;-77
2023/11/19 05:33:23;;;;;;;53.30;8.15;;;10.80;99.90;;;;;;4997126;28;20030;-81
2023/11/19 05:35:49;;;;;;;43.55;6.25;;;10.90;99.90;;;;;;4997943;28;20052;-80
2023/11/19 05:38:16;;;;;;;59.83;7.85;;;10.90;99.90;;;;;;4977679;28;20034;-80
2023/11/19 05:40:43;;;;;;;56.55;6.90;;;11.00;99.90;;;;;;4993404;28;20037;-80
2023/11/19 05:43:09;;;;;;;53.95;7.82;;;11.00;99.90;;;;;;4994813;28;20483;-81
2023/11/19 05:45:35;;;;;;;37.88;5.82;;;11.00;99.90;;;;;;4997102;28;20376;-81
2023/11/19 05:48:04;;;;;;;37.20;6.32;;;11.00;99.90;;;;;;4990185;28;20049;-80
2023/11/19 05:50:30;;;;;;;48.60;8.13;;;11.00;99.90;;;;;;4972367;28;20477;-83
2023/11/19 05:52:56;;;;;;;56.38;7.53;;;11.00;99.90;;;;;;4980310;28;20029;-81
2023/11/19 05:55:24;;;;;;;45.47;7.93;;;11.00;99.90;;;;;;4994200;28;20040;-82
2023/11/19 05:57:51;;;;;;;67.03;9.20;;;10.90;99.90;;;;;;4991296;28;20030;-82
2023/11/19 06:00:18;;;;;;;45.17;6.28;;;11.00;99.90;;;;;;4994970;28;20050;-81
2023/11/19 06:02:44;;;;;;;60.60;8.23;;;11.00;99.90;;;;;;4989395;28;20022;-81
2023/11/19 06:05:10;;;;;;;57.85;7.57;;;11.00;99.90;;;;;;4987371;28;20507;-84
2023/11/19 06:07:38;;;;;;;50.50;7.00;;;11.00;99.90;;;;;;5009055;28;20041;-82
2023/11/19 06:10:06;;;;;;;48.22;7.90;;;11.00;99.90;;;;;;4992834;28;20040;-82
2023/11/19 06:12:37;;;;;;;50.05;7.05;;;11.00;99.90;;;;;;4995093;28;20484;-83
2023/11/19 06:15:08;;;;;;;57.70;7.72;;;11.10;99.90;;;;;;4992130;28;20496;-77
2023/11/19 06:17:34;;;;;;;56.40;8.52;;;11.00;99.90;;;;;;4964767;28;20046;-76
2023/11/19 06:20:01;;;;;;;49.35;6.95;;;11.00;99.90;;;;;;4993410;28;20048;-80
2023/11/19 06:22:27;;;;;;;50.95;8.02;;;11.00;99.90;;;;;;4976955;28;20445;-83
2023/11/19 06:24:53;;;;;;;45.80;7.32;;;11.00;99.90;;;;;;4976589;28;20049;-83
2023/11/19 06:27:21;;;;;;;47.17;7.03;;;11.00;99.90;;;;;;4978416;28;20029;-77
2023/11/19 06:29:47;;;;;;;55.00;7.35;;;11.00;99.90;;;;;;4979737;28;20029;-82
2023/11/19 06:32:13;;;;;;;58.35;8.10;;;11.00;99.90;;;;;;4959006;28;20044;-79
2023/11/19 06:34:41;;;;;;;58.17;7.25;;;11.00;99.90;;;;;;4980162;28;20388;-80
2023/11/19 06:37:08;;;;;;;58.83;6.65;;;10.90;99.90;;;;;;4977203;28;20480;-77
2023/11/19 06:39:35;;;;;;;54.42;7.60;;;10.90;99.90;;;;;;4994197;28;20046;-81
2023/11/19 06:42:02;;;;;;;56.88;8.10;;;10.90;99.90;;;;;;4991863;28;20034;-80
2023/11/19 06:44:28;;;;;;;49.03;6.75;;;10.90;99.90;;;;;;4994096;28;20038;-83
2023/11/19 06:46:54;;;;;;;49.83;6.88;;;10.90;99.90;;;;;;4987926;28;20049;-78
2023/11/19 06:49:21;;;;;;;44.10;6.53;;;10.90;99.90;;;;;;4976100;28;20709;-80
2023/11/19 06:51:47;;;;;;;48.20;7.13;;;10.90;99.90;;;;;;4992018;28;20068;-79
2023/11/19 06:54:14;;;;;;;50.17;6.68;;;10.90;99.90;;;;;;4993296;28;20042;-81
2023/11/19 06:56:41;;;;;;;51.17;6.93;;;10.90;99.90;;;;;;4992363;28;20033;-83
2023/11/19 06:59:08;;;;;;;48.10;6.72;;;10.90;99.90;;;;;;4996265;28;20050;-76
2023/11/19 07:01:36;;;;;;;56.78;7.15;;;10.90;99.90;;;;;;5008798;28;20030;-82
2023/11/19 07:04:08;;;;;;;63.35;7.00;;;10.90;99.90;;;;;;4990717;28;20045;-78
2023/11/19 07:06:35;;;;;;;48.28;6.32;;;10.90;99.90;;;;;;4996235;28;20044;-82
2023/11/19 07:09:09;;;;;;;52.55;7.38;;;10.90;99.90;;;;;;4992803;28;20480;-83
2023/11/19 07:11:38;;;;;;;55.70;7.97;;;10.90;99.90;;;;;;4992559;28;20040;-76
2023/11/19 07:14:08;;;;;;;57.05;7.75;;;11.00;99.90;;;;;;4976691;28;20041;-80
2023/11/19 07:16:37;;;;;;;56.22;7.15;;;10.90;99.90;;;;;;4973794;28;20496;-77
2023/11/19 07:19:06;;;;;;;56.13;7.13;;;10.90;99.90;;;;;;4994950;28;20756;-77
2023/11/19 07:21:33;;;;;;;62.00;8.23;;;11.00;99.90;;;;;;4990381;28;20033;-79
2023/11/19 07:23:59;;;;;;;48.00;7.82;;;11.00;99.90;;;;;;4993547;28;20026;-78
2023/11/19 07:26:27;;;;;;;61.10;7.95;;;11.00;99.90;;;;;;4987937;28;20453;-83
2023/11/19 07:28:53;;;;;;;46.50;7.72;;;11.00;99.90;;;;;;4995135;28;20473;-81
2023/11/19 07:31:20;;;;;;;54.60;7.65;;;11.00;99.90;;;;;;4975618;28;20038;-83
2023/11/19 07:33:47;;;;;;;48.78;6.82;;;11.00;99.90;;;;;;4992606;28;20064;-77
2023/11/19 07:36:14;;;;;;;59.55;9.23;;;11.00;99.90;;;;;;4975629;28;20046;-83
2023/11/19 07:38:40;;;;;;;53.42;6.80;;;11.00;99.90;;;;;;4993871;28;20512;-82
2023/11/19 07:41:08;;;;;;;63.40;8.27;;;11.00;99.90;;;;;;4990234;28;20041;-84
2023/11/19 07:43:35;;;;;;;52.67;7.72;;;10.90;99.90;;;;;;4982528;28;20034;-83
2023/11/19 07:46:03;;;;;;;58.05;8.40;;;11.00;99.90;;;;;;5006514;28;20034;-82
2023/11/19 07:48:30;;;;;;;41.90;6.68;;;11.00;99.90;;;;;;4990541;28;20053;-80
2023/11/19 07:50:56;;;;;;;31.98;5.43;;;11.00;99.90;;;;;;4989548;28;20414;-83
2023/11/19 07:53:23;;;;;;;56.03;6.78;;;11.10;99.90;;;;;;4991008;28;20594;-78
2023/11/19 07:55:49;;;;;;;43.08;6.20;;;11.10;99.90;;;;;;4992298;28;20444;-83
2023/11/19 07:58:15;;;;;;;43.08;6.22;;;11.10;99.90;;;;;;4993268;28;20040;-80
2023/11/19 08:00:42;;;;;;;51.78;6.18;;;11.20;99.90;;;;;;4957339;28;20033;-80
2023/11/19 08:03:08;;;;;;;45.47;6.85;;;11.20;99.90;;;;;;4961613;28;20053;-86
2023/11/19 08:05:34;;;;;;;37.47;6.50;;;11.20;99.90;;;;;;4992141;28;20045;-83
2023/11/19 08:08:02;;;;;;;43.00;5.75;;;11.30;99.90;;;;;;4980584;28;20129;-76
2023/11/19 08:10:29;;;;;;;53.15;6.93;;;11.40;99.90;;;;;;4972037;28;20030;-80
2023/11/19 08:12:55;;;;;;;62.55;7.47;;;11.50;99.90;;;;;;4989045;28;20449;-85
2023/11/19 08:15:22;;;;;;;54.65;6.93;;;11.60;99.90;;;;;;4988816;28;20511;-83
2023/11/19 08:17:48;;;;;;;40.88;5.13;;;11.70;99.90;;;;;;4964803;28;20025;-83
2023/11/19 08:20:14;;;;;;;40.05;5.90;;;11.70;99.90;;;;;;4986362;28;20408;-83
2023/11/19 08:22:41;;;;;;;43.30;6.68;;;11.80;99.90;;;;;;4988522;28;20408;-80
2023/11/19 08:25:08;;;;;;;56.75;8.10;;;11.80;99.90;;;;;;4988775;28;20101;-84
2023/11/19 08:27:35;;;;;;;46.28;6.57;;;11.80;99.90;;;;;;4984802;28;20030;-85
2023/11/19 08:30:01;;;;;;;50.38;7.28;;;11.80;99.90;;;;;;4990585;28;20412;-79
2023/11/19 08:32:27;;;;;;;48.22;7.82;;;11.80;99.90;;;;;;4992800;28;20603;-83
2023/11/19 08:34:54;;;;;;;42.65;6.13;;;11.80;99.90;;;;;;4991362;28;20408;-82
2023/11/19 08:37:21;;;;;;;45.88;5.70;;;11.80;99.90;;;;;;4985242;28;20558;-84
2023/11/19 08:39:48;;;;;;;50.40;6.85;;;11.70;99.90;;;;;;4971364;28;20030;-83
2023/11/19 08:42:15;;;;;;;64.95;7.75;;;11.70;99.90;;;;;;4989896;28;20045;-83
2023/11/19 08:44:47;;;;;;;46.78;6.88;;;11.70;99.90;;;;;;4989854;28;20049;-84
2023/11/19 08:47:15;;;;;;;40.28;6.03;;;11.70;99.90;;;;;;4970842;28;20039;-80
2023/11/19 08:49:42;;;;;;;34.20;5.30;;;11.70;99.90;;;;;;4975911;28;20489;-80
2023/11/19 08:52:08;;;;;;;38.95;7.10;;;11.70;99.90;;;;;;4988885;28;20053;-77
2023/11/19 08:54:35;;;;;;;49.42;7.78;;;11.70;99.90;;;;;;4988217;28;20030;-80
2023/11/19 08:57:02;;;;;;;35.25;5.65;;;11.80;99.90;;;;;;4991062;28;20088;-82
2023/11/19 08:59:30;;;;;;;40.67;5.82;;;11.80;99.90;;;;;;4976028;28;20963;-83
2023/11/19 09:01:57;;;;;;;38.13;6.75;;;11.80;99.90;;;;;;4973503;28;20034;-89
2023/11/19 09:04:23;;;;;;;51.80;6.47;;;11.80;99.90;;;;;;4991101;28;20049;-82
2023/11/19 09:06:49;;;;;;;45.10;6.75;;;11.90;99.90;;;;;;4992303;28;20042;-90
2023/11/19 09:09:15;;;;;;;39.67;4.88;;;11.90;99.90;;;;;;4974664;28;20030;-86
2023/11/19 09:11:42;;;;;;;42.88;6.93;;;11.90;99.90;;;;;;4989377;28;20478;-85
2023/11/19 09:14:08;;;;;;;49.22;6.85;;;11.90;99.90;;;;;;4985211;28;20037;-86
2023/11/19 09:16:35;;;;;;;57.40;7.03;;;12.00;99.90;;;;;;4986577;28;20030;-86
2023/11/19 09:19:02;;;;;;;47.78;6.68;;;12.00;99.90;;;;;;4991861;28;20045;-87
2023/11/19 09:21:29;;;;;;;44.58;7.13;;;12.00;99.90;;;;;;4991168;28;20045;-84
2023/11/19 09:23:55;;;;;;;36.33;5.28;;;12.00;99.90;;;;;;4975177;28;20918;-78
2023/11/19 09:26:22;;;;;;;41.40;6.28;;;12.10;99.90;;;;;;4973470;28;20932;-87
2023/11/19 09:28:49;;;;;;;39.00;7.05;;;12.10;99.90;;;;;;4974449;28;20026;-79
2023/11/19 09:31:16;;;;;;;44.25;5.45;;;12.10;99.90;;;;;;4978635;28;20030;-86
2023/11/19 09:33:42;;;;;;;39.28;6.03;;;12.10;99.90;;;;;;4991201;28;20033;-78
2023/11/19 09:36:11;;;;;;;37.28;5.95;;;12.20;99.90;;;;;;5006076;28;20052;-80
2023/11/19 09:38:38;;;;;;;45.42;5.88;;;12.20;99.90;;;;;;4985709;28;20048;-82
2023/11/19 09:41:08;;;;;;;38.03;5.03;;;12.20;99.90;;;;;;4993308;28;20041;-80
2023/11/19 09:43:36;;;;;;;39.47;6.45;;;12.20;99.90;;;;;;4974354;28;20480;-83
2023/11/19 09:46:10;;;;;;;47.25;7.50;;;12.30;99.90;;;;;;4969622;28;20042;-78
2023/11/19 09:48:37;;;;;;;38.67;7.03;;;12.30;99.90;;;;;;4958772;28;20044;-86
2023/11/19 09:51:07;;;;;;;41.80;5.28;;;12.40;99.90;;;;;;4992199;28;20030;-84
2023/11/19 09:53:36;;;;;;;43.05;6.45;;;12.40;99.90;;;;;;4976633;28;20029;-77
2023/11/19 09:56:07;;;;;;;40.20;6.35;;;12.40;99.90;;;;;;4974657;28;20029;-85
2023/11/19 09:58:34;;;;;;;45.45;6.57;;;12.40;99.90;;;;;;4994090;28;20037;-80
2023/11/19 10:01:02;;;;;;;42.13;5.60;;;12.40;99.90;;;;;;4992712;28;20492;-82
2023/11/19 10:03:39;;;;;;;43.20;5.75;;;12.40;99.90;;;;;;4960109;28;20041;-79
2023/11/19 10:06:10;;;;;;;43.47;6.63;;;12.60;99.90;;;;;;4972569;28;20042;-78
2023/11/19 10:08:41;;;;;;;37.33;6.65;;;12.70;99.90;;;;;;4991778;28;20045;-84
2023/11/19 10:11:07;;;;;;;46.05;7.43;;;12.80;99.90;;;;;;4976578;28;20046;-89
2023/11/19 10:13:37;;;;;;;37.72;7.00;;;12.80;99.90;;;;;;4964132;28;20034;-86
2023/11/19 10:16:08;;;;;;;38.30;5.93;;;12.80;99.90;;;;;;4989548;28;20048;-83
2023/11/19 10:18:37;;;;;;;56.90;8.75;;;12.80;99.90;;;;;;4956345;28;20727;-83
2023/11/19 10:21:06;;;;;;;40.33;8.25;;;12.70;99.90;;;;;;4984209;28;20033;-77
2023/11/19 10:23:51;;;;;;;43.65;6.78;;;12.70;99.90;;;;;;4974142;28;20064;-84
2023/11/19 10:26:19;;;;;;;39.60;6.80;;;12.70;99.90;;;;;;4992146;28;20036;-84
2023/11/19 10:28:50;;;;;;;39.80;6.47;;;12.70;99.90;;;;;;4975860;28;20053;-83
2023/11/19 10:31:18;;;;;;;39.45;6.22;;;12.70;99.90;;;;;;4980243;28;20042;-83
2023/11/19 10:33:45;;;;;;;45.00;5.97;;;12.70;99.90;;;;;;4961117;28;20834;-83
2023/11/19 10:36:12;;;;;;;40.33;6.07;;;12.60;99.90;;;;;;5008072;28;20030;-82
2023/11/19 10:38:40;;;;;;;54.38;8.15;;;12.70;99.90;;;;;;5007337;28;20042;-83
2023/11/19 10:41:06;;;;;;;41.95;6.43;;;12.70;99.90;;;;;;4990906;28;20044;-85
2023/11/19 10:43:46;;;;;;;44.20;5.30;;;12.60;99.90;;;;;;4990967;28;20038;-80
2023/11/19 10:46:14;;;;;;;31.70;5.75;;;12.60;99.90;;;;;;4990179;28;20052;-81
2023/11/19 10:48:40;;;;;;;35.58;6.53;;;12.70;99.90;;;;;;4990915;28;20042;-88
2023/11/19 10:51:07;;;;;;;40.50;5.93;;;12.70;99.90;;;;;;4992572;28;20236;-82
2023/11/19 10:53:37;;;;;;;35.15;5.60;;;12.70;99.90;;;;;;4977734;28;20034;-84
2023/11/19 10:56:08;;;;;;;37.50;7.03;;;12.80;99.90;;;;;;5006058;28;20049;-84
2023/11/19 10:58:37;;;;;;;44.80;5.82;;;12.90;99.90;;;;;;4975858;28;20056;-79
2023/11/19 11:01:19;;;;;;;40.08;5.07;;;13.00;99.90;;;;;;4991256;28;20034;-82
2023/11/19 11:03:47;;;;;;;38.72;5.63;;;13.10;99.90;;;;;;4972113;28;20052;-80
2023/11/19 11:06:13;;;;;;;34.38;6.60;;;13.20;99.90;;;;;;4991132;28;20467;-77
2023/11/19 11:08:40;;;;;;;39.50;5.82;;;13.20;99.90;;;;;;4988216;28;20045;-84
2023/11/19 11:11:07;;;;;;;31.85;5.32;;;13.20;99.90;;;;;;4973858;28;20041;-82
2023/11/19 11:13:36;;;;;;;46.03;6.25;;;13.30;99.90;;;;;;4988160;28;20025;-87
2023/11/19 11:16:07;;;;;;;37.15;5.47;;;13.30;99.90;;;;;;4988373;28;20026;-80
2023/11/19 11:18:34;;;;;;;39.42;6.10;;;13.50;99.90;;;;;;4974763;28;20034;-87
2023/11/19 11:21:05;;;;;;;32.72;5.03;;;13.60;99.90;;;;;;4992425;28;20033;-85
2023/11/19 11:23:56;;;;;;;35.28;5.10;;;13.70;99.90;;;;;;4992478;28;20041;-77
2023/11/19 11:26:42;;;;;;;29.63;4.93;;;13.80;99.90;;;;;;4990178;28;20037;-77
2023/11/19 11:29:57;;;;;;;43.17;5.85;;;13.70;99.90;;;;;;4972091;28;20805;-81
2023/11/19 11:32:45;;;;;;;46.17;6.60;;;13.70;99.90;;;;;;4913300;28;20043;-83
2023/11/19 11:35:42;;;;;;;35.72;5.20;;;13.60;99.90;;;;;;4889219;28;20034;-83
2023/11/19 11:38:09;;;;;;;27.00;4.70;;;13.60;99.90;;;;;;4928577;28;20043;-87
2023/11/19 11:40:38;;;;;;;33.03;4.43;;;13.50;99.90;;;;;;4915205;28;20715;-75
2023/11/19 11:43:24;;;;;;;36.95;5.25;;;13.40;99.90;;;;;;4898820;29;20056;-87
2023/11/19 11:45:51;;;;;;;34.78;5.53;;;13.40;99.90;;;;;;4930425;28;20569;-84
2023/11/19 11:48:22;;;;;;;38.88;6.35;;;13.30;99.90;;;;;;4902950;28;20036;-84
2023/11/19 11:50:53;;;;;;;35.07;6.43;;;13.30;99.90;;;;;;4899405;28;20055;-86
2023/11/19 11:53:24;;;;;;;38.42;6.25;;;13.20;99.90;;;;;;4916090;28;20043;-87
2023/11/19 11:55:50;;;;;;;34.17;5.65;;;13.20;99.90;;;;;;4914915;28;20730;-88
2023/11/19 11:58:20;;;;;;;34.58;5.45;;;13.30;99.90;;;;;;4910948;29;20039;-83
2023/11/19 12:00:48;;;;;;;38.05;5.03;;;13.40;99.90;;;;;;4929917;28;20514;-78
2023/11/19 12:03:15;;;;;;;43.53;5.50;;;13.50;99.90;;;;;;4956662;28;20512;-82
2023/11/19 12:05:44;;;;;;;33.60;5.45;;;13.50;99.90;;;;;;4956840;28;20052;-77
2023/11/19 12:08:14;;;;;;;29.13;6.03;;;13.50;99.90;;;;;;4970180;28;20033;-84
2023/11/19 12:10:49;;;;;;;37.38;6.45;;;13.50;99.90;;;;;;4985669;28;20034;-85
2023/11/19 12:13:22;;;;;;;35.05;4.95;;;13.50;99.90;;;;;;4990980;28;20038;-84
2023/11/19 12:15:57;;;;;;;32.47;4.95;;;13.60;99.90;;;;;;4986817;28;20065;-90
2023/11/19 12:18:27;;;;;;;49.15;6.28;;;13.80;99.90;;;;;;4988435;28;20030;-85
2023/11/19 12:20:57;;;;;;;33.42;4.63;;;13.90;99.90;;;;;;4969689;28;20057;-80
2023/11/19 12:23:24;;;;;;;29.48;4.50;;;13.90;99.90;;;;;;4990365;28;20042;-85
2023/11/19 12:25:52;;;;;;;32.65;4.85;;;13.80;99.90;;;;;;4990751;28;20041;-75
2023/11/19 12:28:18;;;;;;;35.20;4.78;;;13.80;99.90;;;;;;4992503;28;20026;-81
2023/11/19 12:30:46;;;;;;;30.38;5.18;;;13.80;99.90;;;;;;4993762;28;20069;-84
2023/11/19 12:33:13;;;;;;;27.10;5.03;;;13.80;99.90;;;;;;4994974;28;20045;-81
2023/11/19 12:35:40;;;;;;;21.27;4.82;;;13.70;99.90;;;;;;4976921;28;20037;-84
2023/11/19 12:38:07;;;;;;;17.73;3.20;;;13.80;99.90;;;;;;4990310;28;20041;-80
2023/11/19 12:40:33;;;;;;;30.80;4.80;;;13.90;99.90;;;;;;4990368;28;20409;-76